createdAt,value
2022-11-10T00:00:45.182Z,85.30
2022-11-10T00:03:12.093Z,85.15
2022-11-10T00:05:38.919Z,84.25
2022-11-10T00:08:06.536Z,85.31
2022-11-10T00:10:33.371Z,85.81
2022-11-10T00:13:01.883Z,85.08
2022-11-10T00:15:47.565Z,84.39
2022-11-10T00:18:14.137Z,85.32
2022-11-10T00:20:40.702Z,85.49
2022-11-10T00:23:07.410Z,85.50
2022-11-10T00:25:34.112Z,85.28
2022-11-10T00:28:00.800Z,85.91
2022-11-10T00:30:27.388Z,85.14
2022-11-10T00:32:54.052Z,86.58
2022-11-10T00:35:20.648Z,86.21
2022-11-10T00:37:49.496Z,86.29
2022-11-10T00:40:16.247Z,86.35
2022-11-10T00:42:42.926Z,87.65
2022-11-10T00:45:10.034Z,87.37
2022-11-10T00:47:36.698Z,87.35
2022-11-10T00:50:03.450Z,86.89
2022-11-10T00:52:30.017Z,87.46
2022-11-10T00:54:56.950Z,86.95
2022-11-10T00:57:23.624Z,86.80
2022-11-10T00:59:50.297Z,86.35
2022-11-10T01:02:16.947Z,85.24
2022-11-10T01:04:43.570Z,85.67
2022-11-10T01:07:10.359Z,86.38
2022-11-10T01:09:37.104Z,85.33
2022-11-10T01:12:03.893Z,85.52
2022-11-10T01:14:30.489Z,86.63
2022-11-10T01:16:57.152Z,86.56
2022-11-10T01:19:23.813Z,86.86
2022-11-10T01:21:51.782Z,86.58
2022-11-10T01:24:21.851Z,87.16
2022-11-10T01:26:48.725Z,86.88
2022-11-10T01:29:15.430Z,85.85
2022-11-10T01:31:42.131Z,86.23
2022-11-10T01:34:09.144Z,86.34
2022-11-10T01:36:35.841Z,87.05
2022-11-10T01:39:02.591Z,86.41
2022-11-10T01:41:29.328Z,87.55
2022-11-10T01:44:15.387Z,87.95
2022-11-10T01:46:42.018Z,88.51
2022-11-10T01:49:08.658Z,87.77
2022-11-10T01:51:53.355Z,87.77
2022-11-10T01:54:28.110Z,88.24
2022-11-10T01:56:58.006Z,88.14
2022-11-10T01:59:27.857Z,88.29
2022-11-10T02:01:55.602Z,88.17
2022-11-10T02:04:22.240Z,87.72
2022-11-10T02:06:49.185Z,88.01
2022-11-10T02:09:15.942Z,87.38
2022-11-10T02:11:42.702Z,88.14
2022-11-10T02:14:09.374Z,87.38
2022-11-10T02:16:36.259Z,86.69
2022-11-10T02:19:24.058Z,88.67
2022-11-10T02:21:50.747Z,89.15
2022-11-10T02:24:17.918Z,88.23
2022-11-10T02:26:49.079Z,88.50
2022-11-10T02:29:15.802Z,88.42
2022-11-10T02:31:42.450Z,88.79
2022-11-10T02:34:09.058Z,89.95
2022-11-10T02:36:35.670Z,88.87
2022-11-10T02:39:02.329Z,87.82
2022-11-10T02:41:28.942Z,88.53
2022-11-10T02:43:55.594Z,91.14
2022-11-10T02:46:22.190Z,90.94
2022-11-10T02:48:48.911Z,89.49
2022-11-10T02:51:15.641Z,88.17
2022-11-10T02:53:42.360Z,87.74
2022-11-10T02:56:09.164Z,87.08
2022-11-10T02:58:35.870Z,87.27
2022-11-10T03:01:06.081Z,86.65
2022-11-10T03:03:33.166Z,85.95
2022-11-10T03:06:00.312Z,86.30
2022-11-10T03:08:26.994Z,86.72
2022-11-10T03:10:55.199Z,87.53
2022-11-10T03:13:22.967Z,87.61
2022-11-10T03:15:50.095Z,87.61
2022-11-10T03:18:16.670Z,87.61
2022-11-10T03:20:43.377Z,86.99
2022-11-10T03:23:10.015Z,87.04
2022-11-10T03:25:38.505Z,86.59
2022-11-10T03:28:05.187Z,86.12
2022-11-10T03:30:31.858Z,85.59
2022-11-10T03:32:59.313Z,86.20
2022-11-10T03:35:26.147Z,86.39
2022-11-10T03:37:52.793Z,87.05
2022-11-10T03:40:19.454Z,86.56
2022-11-10T03:42:46.218Z,85.29
2022-11-10T03:45:13.635Z,85.86
2022-11-10T03:47:40.242Z,86.58
2022-11-10T03:50:07.298Z,87.33
2022-11-10T03:52:34.131Z,86.93
2022-11-10T03:55:03.500Z,86.60
2022-11-10T03:57:30.443Z,86.66
2022-11-10T03:59:57.103Z,86.99
2022-11-10T04:02:23.686Z,87.19
2022-11-10T04:05:08.899Z,87.51
2022-11-10T04:07:54.198Z,87.61
2022-11-10T04:10:21.152Z,87.53
2022-11-10T04:13:06.354Z,87.58
2022-11-10T04:15:42.189Z,86.86
2022-11-10T04:18:21.756Z,86.63
2022-11-10T04:20:48.455Z,88.72
2022-11-10T04:23:27.515Z,87.89
2022-11-10T04:26:17.342Z,87.26
2022-11-10T04:28:45.016Z,86.34
2022-11-10T04:31:11.708Z,86.65
2022-11-10T04:33:38.572Z,86.74
2022-11-10T04:36:05.936Z,85.71
2022-11-10T04:38:32.577Z,85.81
2022-11-10T04:40:59.240Z,86.10
2022-11-10T04:43:25.991Z,86.39
2022-11-10T04:45:52.842Z,85.84
2022-11-10T04:48:19.430Z,86.23
2022-11-10T04:50:46.226Z,85.61
2022-11-10T04:53:12.904Z,85.07
2022-11-10T04:55:40.979Z,85.88
2022-11-10T04:58:07.584Z,86.92
2022-11-10T05:00:34.833Z,86.97
2022-11-10T05:03:02.290Z,88.50
2022-11-10T05:05:28.946Z,88.46
2022-11-10T05:07:55.678Z,88.46
2022-11-10T05:10:22.285Z,88.71
2022-11-10T05:12:48.939Z,89.27
2022-11-10T05:15:15.654Z,88.62
2022-11-10T05:17:42.359Z,87.95
2022-11-10T05:20:09.704Z,87.15
2022-11-10T05:22:36.399Z,86.73
2022-11-10T05:25:03.125Z,86.34
2022-11-10T05:27:31.102Z,86.46
2022-11-10T05:29:57.786Z,85.82
2022-11-10T05:32:24.433Z,86.26
2022-11-10T05:34:51.044Z,85.78
2022-11-10T05:37:17.679Z,85.39
2022-11-10T05:39:44.361Z,85.24
2022-11-10T05:42:10.930Z,86.21
2022-11-10T05:44:37.623Z,86.41
2022-11-10T05:47:04.322Z,85.98
2022-11-10T05:49:31.071Z,86.96
2022-11-10T05:51:57.732Z,87.09
2022-11-10T05:54:24.299Z,87.48
2022-11-10T05:56:50.890Z,87.10
2022-11-10T05:59:17.498Z,86.86
2022-11-10T06:01:44.159Z,86.17
2022-11-10T06:04:10.754Z,86.21
2022-11-10T06:06:37.486Z,85.55
2022-11-10T06:09:04.174Z,85.55
2022-11-10T06:11:30.827Z,86.43
2022-11-10T06:13:57.462Z,87.50
2022-11-10T06:16:24.090Z,87.94
2022-11-10T06:18:50.702Z,88.43
2022-11-10T06:21:17.358Z,87.60
2022-11-10T06:23:44.026Z,87.87
2022-11-10T06:26:10.589Z,88.95
2022-11-10T06:28:37.249Z,88.89
2022-11-10T06:31:03.955Z,87.39
2022-11-10T06:33:30.559Z,87.52
2022-11-10T06:35:57.221Z,87.61
2022-11-10T06:38:23.796Z,88.65
2022-11-10T06:40:50.499Z,89.37
2022-11-10T06:43:17.154Z,89.48
2022-11-10T06:45:43.752Z,89.20
2022-11-10T06:48:12.097Z,88.52
2022-11-10T06:50:38.705Z,88.42
2022-11-10T06:53:05.360Z,88.56
2022-11-10T06:55:32.086Z,88.50
2022-11-10T06:57:58.863Z,89.69
2022-11-10T07:00:25.961Z,89.07
2022-11-10T07:03:03.018Z,90.02
2022-11-10T07:05:29.938Z,90.20
2022-11-10T07:07:56.603Z,89.95
2022-11-10T07:10:23.169Z,90.65
2022-11-10T07:12:56.194Z,90.74
2022-11-10T07:15:22.775Z,90.24
2022-11-10T07:17:49.470Z,90.65
2022-11-10T07:20:16.099Z,90.98
2022-11-10T07:22:42.674Z,89.75
2022-11-10T07:25:09.518Z,90.36
2022-11-10T07:27:36.189Z,90.04
2022-11-10T07:30:03.629Z,90.70
2022-11-10T07:32:30.256Z,90.86
2022-11-10T07:34:56.916Z,91.47
2022-11-10T07:37:23.565Z,89.97
2022-11-10T07:39:50.185Z,89.01
2022-11-10T07:42:16.783Z,89.76
2022-11-10T07:44:43.467Z,91.87
2022-11-10T07:47:10.112Z,91.90
2022-11-10T07:49:36.711Z,89.79
2022-11-10T07:52:03.391Z,89.57
2022-11-10T07:54:29.992Z,88.02
2022-11-10T07:56:56.663Z,87.23
2022-11-10T07:59:23.314Z,87.99
2022-11-10T08:01:49.926Z,86.71
2022-11-10T08:04:16.547Z,87.63
2022-11-10T08:06:43.273Z,87.35
2022-11-10T08:09:09.930Z,86.31
2022-11-10T08:11:36.760Z,86.69
2022-11-10T08:14:03.441Z,85.47
2022-11-10T08:16:30.049Z,86.19
2022-11-10T08:18:56.743Z,85.65
2022-11-10T08:21:23.487Z,85.56
2022-11-10T08:23:50.190Z,86.34
2022-11-10T08:26:17.852Z,85.95
2022-11-10T08:28:44.511Z,85.75
2022-11-10T08:31:11.359Z,85.12
2022-11-10T08:33:38.252Z,84.75
2022-11-10T08:36:05.156Z,85.61
2022-11-10T08:38:31.822Z,86.91
2022-11-10T08:40:58.498Z,86.15
2022-11-10T08:43:25.592Z,84.21
2022-11-10T08:45:54.590Z,85.57
2022-11-10T08:48:21.270Z,86.18
2022-11-10T08:50:49.673Z,86.43
2022-11-10T08:53:21.545Z,85.02
2022-11-10T08:55:48.598Z,83.85
2022-11-10T08:58:17.210Z,81.28
2022-11-10T09:00:43.939Z,81.37
2022-11-10T09:03:11.249Z,80.93
2022-11-10T09:05:38.072Z,83.50
2022-11-10T09:08:04.918Z,85.53
2022-11-10T09:10:32.546Z,85.52
2022-11-10T09:13:00.789Z,85.45
2022-11-10T09:15:27.798Z,84.14
2022-11-10T09:17:54.400Z,84.30
2022-11-10T09:20:21.012Z,84.01
2022-11-10T09:22:47.749Z,83.87
2022-11-10T09:25:14.465Z,83.15
2022-11-10T09:27:41.172Z,81.83
2022-11-10T09:30:10.632Z,80.45
2022-11-10T09:32:41.106Z,79.99
2022-11-10T09:35:07.860Z,78.80
2022-11-10T09:37:39.973Z,80.35
2022-11-10T09:40:11.728Z,78.85
2022-11-10T09:42:42.563Z,77.98
2022-11-10T09:45:29.017Z,77.07
2022-11-10T09:48:21.617Z,74.58
2022-11-10T09:50:59.519Z,73.53
2022-11-10T09:53:56.370Z,75.15
2022-11-10T09:56:30.774Z,73.46
2022-11-10T09:58:57.473Z,72.27
2022-11-10T10:01:29.029Z,70.99
2022-11-10T10:04:30.782Z,70.34
2022-11-10T10:07:15.226Z,68.36
2022-11-10T10:09:47.345Z,67.81
2022-11-10T10:12:24.533Z,67.50
2022-11-10T10:14:52.618Z,66.88
2022-11-10T10:17:42.826Z,65.50
2022-11-10T10:20:31.457Z,65.56
2022-11-10T10:23:18.337Z,64.03
2022-11-10T10:25:45.131Z,62.56
2022-11-10T10:28:31.582Z,61.36
2022-11-10T10:31:20.487Z,59.19
2022-11-10T10:33:47.319Z,58.10
2022-11-10T10:36:24.606Z,57.54
2022-11-10T10:38:54.276Z,56.77
2022-11-10T10:41:28.854Z,54.51
2022-11-10T10:43:57.140Z,51.37
2022-11-10T10:46:32.964Z,54.95
2022-11-10T10:49:30.261Z,55.59
2022-11-10T10:52:11.355Z,54.69
2022-11-10T10:54:38.815Z,54.58
2022-11-10T10:57:29.192Z,54.53
2022-11-10T11:00:17.659Z,53.37
2022-11-10T11:02:44.429Z,53.03
2022-11-10T11:05:12.808Z,52.34
2022-11-10T11:07:39.505Z,51.69
2022-11-10T11:10:21.653Z,51.14
2022-11-10T11:12:48.371Z,49.74
2022-11-10T11:15:28.499Z,51.48
2022-11-10T11:17:56.092Z,51.79
2022-11-10T11:20:29.127Z,51.95
2022-11-10T11:23:17.149Z,53.38
2022-11-10T11:25:43.818Z,52.23
2022-11-10T11:28:41.418Z,51.49
2022-11-10T11:31:42.655Z,51.54
2022-11-10T11:34:17.534Z,50.91
2022-11-10T11:37:27.993Z,50.44
2022-11-10T11:40:17.870Z,49.74
2022-11-10T11:43:00.669Z,49.30
2022-11-10T11:45:37.198Z,51.53
2022-11-10T11:48:28.089Z,50.28
2022-11-10T11:50:56.177Z,47.03
2022-11-10T11:53:36.758Z,47.74
2022-11-10T11:56:03.310Z,46.37
2022-11-10T11:58:59.302Z,47.39
2022-11-10T12:02:07.412Z,44.88
2022-11-10T12:04:47.497Z,44.34
2022-11-10T12:07:24.313Z,47.34
2022-11-10T12:09:52.709Z,47.40
2022-11-10T12:12:31.273Z,46.64
2022-11-10T12:15:20.530Z,46.30
2022-11-10T12:18:38.213Z,44.13
2022-11-10T12:21:19.438Z,44.31
2022-11-10T12:23:51.888Z,43.42
2022-11-10T12:26:58.307Z,42.13
2022-11-10T12:29:56.996Z,43.75
2022-11-10T12:32:23.536Z,45.67
2022-11-10T12:35:17.759Z,42.17
2022-11-10T12:38:05.623Z,42.02
2022-11-10T12:41:01.867Z,41.73
2022-11-10T12:43:39.289Z,42.86
2022-11-10T12:46:08.276Z,42.87
2022-11-10T12:49:00.840Z,42.17
2022-11-10T12:51:39.205Z,41.65
2022-11-10T12:54:12.334Z,42.39
2022-11-10T12:57:06.199Z,42.24
2022-11-10T12:59:37.702Z,41.36
2022-11-10T13:02:07.277Z,41.31
2022-11-10T13:04:33.984Z,40.43
2022-11-10T13:07:08.804Z,41.03
2022-11-10T13:09:40.142Z,40.90
2022-11-10T13:12:16.903Z,40.17
2022-11-10T13:14:43.888Z,40.27
2022-11-10T13:17:12.249Z,40.62
2022-11-10T13:19:39.160Z,41.36
2022-11-10T13:22:10.212Z,40.32
2022-11-10T13:24:38.353Z,40.23
2022-11-10T13:27:11.394Z,39.83
2022-11-10T13:29:47.549Z,40.43
2022-11-10T13:32:14.313Z,40.92
2022-11-10T13:34:42.046Z,41.30
2022-11-10T13:37:33.376Z,41.22
2022-11-10T13:40:18.631Z,42.36
2022-11-10T13:43:05.758Z,42.32
2022-11-10T13:45:41.655Z,41.71
2022-11-10T13:48:11.470Z,41.39
2022-11-10T13:50:51.072Z,42.05
2022-11-10T13:53:43.548Z,43.43
2022-11-10T13:56:19.028Z,43.90
2022-11-10T13:58:45.773Z,44.29
2022-11-10T14:01:15.139Z,44.75
2022-11-10T14:03:47.882Z,45.98
2022-11-10T14:06:21.956Z,45.27
2022-11-10T14:08:53.163Z,45.57
2022-11-10T14:11:27.040Z,45.55
2022-11-10T14:14:10.222Z,45.66
2022-11-10T14:16:40.741Z,46.21
2022-11-10T14:19:31.747Z,47.01
2022-11-10T14:22:14.615Z,47.58
2022-11-10T14:24:58.322Z,47.98
2022-11-10T14:27:29.771Z,48.19
2022-11-10T14:30:04.914Z,49.00
2022-11-10T14:32:31.571Z,49.49
2022-11-10T14:34:58.304Z,49.79
2022-11-10T14:37:26.765Z,50.33
2022-11-10T14:40:00.789Z,50.65
2022-11-10T14:42:31.803Z,50.93
2022-11-10T14:45:15.537Z,50.96
2022-11-10T14:47:42.172Z,51.60
2022-11-10T14:50:14.678Z,51.97
2022-11-10T14:52:41.599Z,51.97
2022-11-10T14:55:25.784Z,52.80
2022-11-10T14:58:04.510Z,53.99
2022-11-10T15:00:35.395Z,53.57
2022-11-10T15:03:02.099Z,54.27
2022-11-10T15:05:30.028Z,54.58
2022-11-10T15:07:57.228Z,54.18
2022-11-10T15:10:48.019Z,54.66
2022-11-10T15:13:14.856Z,55.58
2022-11-10T15:15:41.633Z,57.19
2022-11-10T15:18:26.519Z,57.77
2022-11-10T15:21:03.345Z,57.76
2022-11-10T15:23:36.487Z,57.11
2022-11-10T15:26:06.781Z,58.20
2022-11-10T15:28:34.471Z,59.62
2022-11-10T15:31:02.917Z,60.08
2022-11-10T15:33:35.090Z,60.44
2022-11-10T15:36:35.627Z,61.47
2022-11-10T15:39:03.342Z,60.79
2022-11-10T15:41:31.168Z,60.83
2022-11-10T15:43:57.789Z,61.05
2022-11-10T15:46:25.302Z,61.38
2022-11-10T15:48:52.020Z,62.27
2022-11-10T15:51:25.631Z,60.58
2022-11-10T15:53:53.391Z,61.98
2022-11-10T15:56:21.363Z,62.93
2022-11-10T15:58:57.686Z,61.16
2022-11-10T16:01:27.398Z,61.93
2022-11-10T16:03:54.134Z,63.04
2022-11-10T16:06:20.722Z,61.36
2022-11-10T16:08:47.371Z,61.71
2022-11-10T16:11:17.176Z,63.27
2022-11-10T16:13:43.850Z,64.45
2022-11-10T16:16:12.647Z,64.77
2022-11-10T16:18:43.642Z,64.94
2022-11-10T16:21:14.539Z,65.00
2022-11-10T16:23:41.981Z,64.32
2022-11-10T16:26:14.410Z,65.40
2022-11-10T16:28:44.160Z,63.87
2022-11-10T16:31:11.245Z,63.71
2022-11-10T16:33:37.968Z,64.01
2022-11-10T16:36:04.847Z,65.95
2022-11-10T16:38:31.662Z,65.34
2022-11-10T16:40:59.403Z,64.79
2022-11-10T16:43:26.171Z,65.10
2022-11-10T16:45:54.022Z,65.66
2022-11-10T16:48:22.536Z,65.85
2022-11-10T16:50:51.249Z,65.94
2022-11-10T16:53:20.178Z,65.04
2022-11-10T16:55:46.866Z,64.79
2022-11-10T16:58:13.445Z,65.05
2022-11-10T17:00:40.493Z,65.23
2022-11-10T17:03:21.926Z,66.76
2022-11-10T17:05:48.587Z,67.23
2022-11-10T17:08:26.002Z,67.98
2022-11-10T17:10:52.894Z,67.06
2022-11-10T17:13:19.522Z,67.70
2022-11-10T17:15:46.172Z,66.48
2022-11-10T17:18:17.057Z,67.77
2022-11-10T17:20:46.633Z,67.42
2022-11-10T17:23:14.528Z,66.87
2022-11-10T17:25:41.195Z,67.19
2022-11-10T17:28:13.816Z,66.01
2022-11-10T17:30:40.917Z,65.91
2022-11-10T17:33:08.049Z,65.60
2022-11-10T17:35:40.328Z,67.94
2022-11-10T17:38:08.319Z,66.39
2022-11-10T17:40:35.016Z,67.50
2022-11-10T17:43:01.708Z,68.62
2022-11-10T17:45:28.454Z,68.08
2022-11-10T17:47:55.258Z,66.90
2022-11-10T17:50:22.819Z,66.61
2022-11-10T17:52:49.662Z,66.16
2022-11-10T17:55:21.110Z,67.12
2022-11-10T17:57:48.082Z,67.98
2022-11-10T18:00:17.048Z,68.07
2022-11-10T18:02:44.677Z,68.26
2022-11-10T18:05:12.299Z,69.19
2022-11-10T18:07:39.346Z,68.41
2022-11-10T18:10:07.157Z,69.07
2022-11-10T18:12:33.837Z,69.98
2022-11-10T18:15:00.475Z,69.71
2022-11-10T18:17:27.155Z,69.20
2022-11-10T18:19:53.746Z,69.58
2022-11-10T18:22:20.505Z,69.00
2022-11-10T18:24:47.795Z,69.66
2022-11-10T18:27:14.489Z,69.70
2022-11-10T18:29:41.117Z,69.19
2022-11-10T18:32:07.758Z,69.09
2022-11-10T18:34:34.391Z,69.33
2022-11-10T18:37:01.008Z,69.48
2022-11-10T18:39:27.691Z,69.47
2022-11-10T18:41:54.301Z,69.82
2022-11-10T18:44:20.969Z,68.39
2022-11-10T18:46:48.391Z,70.33
2022-11-10T18:49:15.453Z,69.78
2022-11-10T18:51:42.239Z,70.98
2022-11-10T18:54:08.881Z,72.01
2022-11-10T18:56:35.547Z,71.00
2022-11-10T18:59:02.302Z,72.29
2022-11-10T19:01:29.090Z,73.31
2022-11-10T19:03:55.787Z,72.09
2022-11-10T19:06:22.428Z,72.12
2022-11-10T19:08:49.726Z,72.99
2022-11-10T19:11:16.899Z,73.94
2022-11-10T19:13:43.613Z,73.90
2022-11-10T19:16:11.501Z,75.25
2022-11-10T19:18:39.382Z,78.34
2022-11-10T19:21:06.749Z,79.44
2022-11-10T19:23:33.593Z,78.94
2022-11-10T19:26:04.230Z,78.03
2022-11-10T19:28:30.897Z,77.98
2022-11-10T19:31:05.194Z,77.46
2022-11-10T19:33:32.477Z,78.50
2022-11-10T19:36:23.236Z,79.33
2022-11-10T19:38:50.015Z,78.07
2022-11-10T19:41:18.643Z,77.35
2022-11-10T19:43:47.668Z,76.29
2022-11-10T19:46:22.521Z,75.11
2022-11-10T19:48:49.208Z,74.72
2022-11-10T19:51:16.727Z,75.05
2022-11-10T19:53:44.784Z,76.72
2022-11-10T19:56:16.955Z,76.32
2022-11-10T19:58:43.791Z,75.70
2022-11-10T20:01:11.091Z,75.39
2022-11-10T20:03:39.234Z,75.46
2022-11-10T20:06:10.470Z,73.44
2022-11-10T20:08:37.665Z,72.88
2022-11-10T20:11:06.459Z,72.65
2022-11-10T20:13:33.330Z,73.30
2022-11-10T20:16:03.600Z,73.62
2022-11-10T20:18:30.927Z,73.23
2022-11-10T20:21:04.953Z,73.33
2022-11-10T20:23:31.706Z,75.97
2022-11-10T20:26:08.357Z,76.55
2022-11-10T20:28:36.697Z,76.38
2022-11-10T20:31:04.199Z,76.03
2022-11-10T20:33:31.210Z,75.60
2022-11-10T20:36:08.709Z,75.01
2022-11-10T20:38:35.436Z,76.21
2022-11-10T20:41:06.672Z,77.17
2022-11-10T20:43:34.604Z,77.48
2022-11-10T20:46:01.472Z,77.28
2022-11-10T20:48:30.140Z,78.37
2022-11-10T20:50:56.855Z,76.94
2022-11-10T20:53:23.893Z,77.14
2022-11-10T20:56:10.995Z,77.44
2022-11-10T20:58:37.952Z,77.28
2022-11-10T21:01:09.308Z,76.12
2022-11-10T21:03:36.093Z,76.71
2022-11-10T21:06:02.808Z,76.76
2022-11-10T21:08:29.458Z,76.79
2022-11-10T21:10:57.663Z,78.48
2022-11-10T21:13:24.750Z,79.05
2022-11-10T21:15:58.885Z,77.81
2022-11-10T21:18:30.114Z,78.21
2022-11-10T21:20:56.875Z,79.82
2022-11-10T21:23:23.831Z,81.92
2022-11-10T21:25:58.017Z,82.43
2022-11-10T21:28:24.890Z,80.38
2022-11-10T21:30:51.652Z,79.30
2022-11-10T21:33:18.381Z,79.88
2022-11-10T21:35:45.045Z,80.13
2022-11-10T21:38:12.299Z,79.82
2022-11-10T21:40:39.139Z,79.70
2022-11-10T21:43:05.825Z,78.48
2022-11-10T21:45:32.438Z,78.75
2022-11-10T21:48:00.685Z,78.21
2022-11-10T21:50:27.348Z,78.22
2022-11-10T21:52:54.014Z,79.67
2022-11-10T21:55:20.666Z,78.47
2022-11-10T21:57:47.298Z,79.05
2022-11-10T22:00:14.313Z,78.24
2022-11-10T22:02:40.992Z,77.84
2022-11-10T22:05:07.939Z,77.92
2022-11-10T22:07:34.721Z,77.97
2022-11-10T22:10:19.746Z,77.59
2022-11-10T22:13:05.163Z,76.62
2022-11-10T22:15:50.555Z,76.91
2022-11-10T22:18:36.306Z,77.84
2022-11-10T22:21:03.839Z,78.43
2022-11-10T22:23:48.829Z,78.35
2022-11-10T22:26:15.420Z,78.78
2022-11-10T22:28:42.155Z,79.34
2022-11-10T22:31:09.313Z,79.82
2022-11-10T22:33:37.070Z,79.56
2022-11-10T22:36:04.399Z,77.94
2022-11-10T22:38:33.922Z,78.92
2022-11-10T22:41:19.199Z,79.69
2022-11-10T22:44:04.188Z,79.41
2022-11-10T22:46:41.054Z,78.11
2022-11-10T22:49:09.277Z,77.95
2022-11-10T22:51:36.742Z,76.98
2022-11-10T22:54:03.781Z,76.91
2022-11-10T22:56:30.754Z,77.36
2022-11-10T22:59:00.018Z,77.28
2022-11-10T23:01:27.215Z,78.91
2022-11-10T23:03:53.917Z,78.75
2022-11-10T23:06:20.711Z,79.31
2022-11-10T23:08:47.411Z,78.92
2022-11-10T23:11:17.064Z,78.48
2022-11-10T23:13:43.779Z,78.18
2022-11-10T23:16:15.241Z,78.98
2022-11-10T23:18:43.347Z,78.24
2022-11-10T23:21:11.667Z,77.59
2022-11-10T23:23:39.062Z,77.98
2022-11-10T23:26:10.365Z,77.73
2022-11-10T23:28:37.459Z,78.23
2022-11-10T23:31:09.469Z,77.83
2022-11-10T23:33:36.795Z,78.00
2022-11-10T23:36:03.849Z,77.10
2022-11-10T23:38:31.605Z,77.00
2022-11-10T23:40:58.493Z,77.27
2022-11-10T23:43:25.905Z,77.39
2022-11-10T23:46:06.488Z,77.24
2022-11-10T23:48:34.901Z,78.66
2022-11-10T23:51:01.556Z,77.70
2022-11-10T23:53:28.211Z,80.36
2022-11-10T23:56:05.646Z,80.56
2022-11-10T23:58:32.660Z,81.12
